Saguache, Colorado
Current Conditions -  °F | °C
As of 12:27 PM on Friday 28 Nov 2014 (Local Time) from K04V Reporting Station
Clear Clear  
Wind Chill: 48°   Ceiling: Unl
Heat Index: 48°   Visibility: 10mi
Dew Point: 18°   Wind: 3mph
Humidity: 30%   Direction: 130°SE
Pressure: 30.17"   Gusts: NA
Location:  38.09°N, 106.1°W
Report Text: K04V 281927Z AUTO 13003KT 10SM CLR 09/M08 A3017 RMK AO2
Loading
Personal Weather Stations






























Interactive Weather Map New forecast layout! Learn more

10-Day Weather Forecast

Advertisements
Track Severe Weather on mobile